sensor_id;sensor_type;location;lat;lon;timestamp;temperature;humidity
80367;DHT22;70058;42.660;23.366;2023-06-26T00:00:19;22.20;66.60
80367;DHT22;70058;42.660;23.366;2023-06-26T00:02:44;22.30;67.30
80367;DHT22;70058;42.660;23.366;2023-06-26T00:05:10;22.30;66.90
80367;DHT22;70058;42.660;23.366;2023-06-26T00:07:36;22.30;66.70
80367;DHT22;70058;42.660;23.366;2023-06-26T00:10:02;22.40;66.60
80367;DHT22;70058;42.660;23.366;2023-06-26T00:12:29;22.30;66.40
80367;DHT22;70058;42.660;23.366;2023-06-26T00:14:55;22.30;66.80
80367;DHT22;70058;42.660;23.366;2023-06-26T00:17:21;22.20;66.30
80367;DHT22;70058;42.660;23.366;2023-06-26T00:19:47;22.20;67.10
80367;DHT22;70058;42.660;23.366;2023-06-26T00:22:12;22.30;66.80
80367;DHT22;70058;42.660;23.366;2023-06-26T00:24:38;22.10;65.90
80367;DHT22;70058;42.660;23.366;2023-06-26T00:27:04;22.20;67.10
80367;DHT22;70058;42.660;23.366;2023-06-26T00:29:30;22.10;67.00
80367;DHT22;70058;42.660;23.366;2023-06-26T00:31:55;22.10;66.40
80367;DHT22;70058;42.660;23.366;2023-06-26T00:34:21;22.20;67.20
80367;DHT22;70058;42.660;23.366;2023-06-26T00:36:47;22.10;67.10
80367;DHT22;70058;42.660;23.366;2023-06-26T00:39:12;22.20;66.90
80367;DHT22;70058;42.660;23.366;2023-06-26T00:41:39;22.00;65.80
80367;DHT22;70058;42.660;23.366;2023-06-26T00:44:05;21.90;67.30
80367;DHT22;70058;42.660;23.366;2023-06-26T00:46:31;22.00;67.80
80367;DHT22;70058;42.660;23.366;2023-06-26T00:48:59;22.00;67.10
80367;DHT22;70058;42.660;23.366;2023-06-26T00:51:30;21.90;67.00
80367;DHT22;70058;42.660;23.366;2023-06-26T00:53:57;22.00;67.70
80367;DHT22;70058;42.660;23.366;2023-06-26T00:56:23;22.00;67.40
80367;DHT22;70058;42.660;23.366;2023-06-26T00:58:49;22.00;67.50
80367;DHT22;70058;42.660;23.366;2023-06-26T01:01:15;21.90;66.20
80367;DHT22;70058;42.660;23.366;2023-06-26T01:03:44;21.90;67.20
80367;DHT22;70058;42.660;23.366;2023-06-26T01:06:12;21.80;67.30
80367;DHT22;70058;42.660;23.366;2023-06-26T01:08:40;21.80;67.50
80367;DHT22;70058;42.660;23.366;2023-06-26T01:11:06;21.70;66.60
80367;DHT22;70058;42.660;23.366;2023-06-26T01:13:33;21.70;67.80
80367;DHT22;70058;42.660;23.366;2023-06-26T01:16:00;21.70;68.00
80367;DHT22;70058;42.660;23.366;2023-06-26T01:18:26;21.50;68.10
80367;DHT22;70058;42.660;23.366;2023-06-26T01:20:52;21.40;67.70
80367;DHT22;70058;42.660;23.366;2023-06-26T01:23:31;21.30;68.90
80367;DHT22;70058;42.660;23.366;2023-06-26T01:28:41;21.20;68.70
80367;DHT22;70058;42.660;23.366;2023-06-26T01:31:08;21.20;69.00
80367;DHT22;70058;42.660;23.366;2023-06-26T01:33:34;21.00;68.90
80367;DHT22;70058;42.660;23.366;2023-06-26T01:36:01;21.00;69.70
80367;DHT22;70058;42.660;23.366;2023-06-26T01:38:26;21.00;70.10
80367;DHT22;70058;42.660;23.366;2023-06-26T01:40:52;20.80;69.10
80367;DHT22;70058;42.660;23.366;2023-06-26T01:46:23;20.90;70.80
80367;DHT22;70058;42.660;23.366;2023-06-26T01:51:38;20.80;69.50
80367;DHT22;70058;42.660;23.366;2023-06-26T01:54:13;20.70;70.00
80367;DHT22;70058;42.660;23.366;2023-06-26T01:56:43;20.70;70.70
80367;DHT22;70058;42.660;23.366;2023-06-26T01:59:11;20.70;70.80
80367;DHT22;70058;42.660;23.366;2023-06-26T02:01:39;20.60;70.00
80367;DHT22;70058;42.660;23.366;2023-06-26T02:04:05;20.40;70.20
80367;DHT22;70058;42.660;23.366;2023-06-26T02:06:31;20.30;70.50
80367;DHT22;70058;42.660;23.366;2023-06-26T02:08:57;20.30;71.80
80367;DHT22;70058;42.660;23.366;2023-06-26T02:11:23;20.40;72.10
80367;DHT22;70058;42.660;23.366;2023-06-26T02:13:48;20.40;71.30
80367;DHT22;70058;42.660;23.366;2023-06-26T02:16:14;20.40;71.80
80367;DHT22;70058;42.660;23.366;2023-06-26T02:18:40;20.40;71.60
80367;DHT22;70058;42.660;23.366;2023-06-26T02:21:07;20.50;71.40
80367;DHT22;70058;42.660;23.366;2023-06-26T02:23:32;20.40;70.40
80367;DHT22;70058;42.660;23.366;2023-06-26T02:25:58;20.50;71.50
80367;DHT22;70058;42.660;23.366;2023-06-26T02:28:24;20.30;70.10
80367;DHT22;70058;42.660;23.366;2023-06-26T02:30:50;20.30;71.60
80367;DHT22;70058;42.660;23.366;2023-06-26T02:33:15;20.30;71.30
80367;DHT22;70058;42.660;23.366;2023-06-26T02:35:41;20.40;71.90
80367;DHT22;70058;42.660;23.366;2023-06-26T02:38:06;20.40;71.40
80367;DHT22;70058;42.660;23.366;2023-06-26T02:40:32;20.40;71.60
80367;DHT22;70058;42.660;23.366;2023-06-26T02:42:58;20.40;71.00
80367;DHT22;70058;42.660;23.366;2023-06-26T02:45:24;20.40;71.10
80367;DHT22;70058;42.660;23.366;2023-06-26T02:47:50;20.40;71.40
80367;DHT22;70058;42.660;23.366;2023-06-26T02:50:16;20.40;71.60
80367;DHT22;70058;42.660;23.366;2023-06-26T02:52:41;20.40;71.70
80367;DHT22;70058;42.660;23.366;2023-06-26T02:55:07;20.30;71.20
80367;DHT22;70058;42.660;23.366;2023-06-26T02:57:32;20.20;71.20
80367;DHT22;70058;42.660;23.366;2023-06-26T02:59:58;20.20;71.40
80367;DHT22;70058;42.660;23.366;2023-06-26T03:02:24;20.20;71.50
80367;DHT22;70058;42.660;23.366;2023-06-26T03:04:49;20.30;71.60
80367;DHT22;70058;42.660;23.366;2023-06-26T03:07:15;20.30;71.90
80367;DHT22;70058;42.660;23.366;2023-06-26T03:09:41;20.30;72.00
80367;DHT22;70058;42.660;23.366;2023-06-26T03:12:07;20.30;71.40
80367;DHT22;70058;42.660;23.366;2023-06-26T03:14:33;20.30;71.70
80367;DHT22;70058;42.660;23.366;2023-06-26T03:17:00;20.40;71.80
80367;DHT22;70058;42.660;23.366;2023-06-26T03:19:29;20.40;71.40
80367;DHT22;70058;42.660;23.366;2023-06-26T03:21:54;20.30;70.50
80367;DHT22;70058;42.660;23.366;2023-06-26T03:24:20;20.20;70.40
80367;DHT22;70058;42.660;23.366;2023-06-26T03:26:46;20.10;70.90
80367;DHT22;70058;42.660;23.366;2023-06-26T03:29:12;20.20;70.70
80367;DHT22;70058;42.660;23.366;2023-06-26T03:31:37;20.30;70.90
80367;DHT22;70058;42.660;23.366;2023-06-26T03:34:04;20.40;71.50
80367;DHT22;70058;42.660;23.366;2023-06-26T03:36:29;20.30;70.30
80367;DHT22;70058;42.660;23.366;2023-06-26T03:38:55;20.40;71.90
80367;DHT22;70058;42.660;23.366;2023-06-26T03:41:23;20.50;71.10
80367;DHT22;70058;42.660;23.366;2023-06-26T03:43:48;20.60;70.90
80367;DHT22;70058;42.660;23.366;2023-06-26T03:46:14;20.60;69.00
80367;DHT22;70058;42.660;23.366;2023-06-26T03:48:40;20.50;69.00
80367;DHT22;70058;42.660;23.366;2023-06-26T03:51:06;20.60;69.90
80367;DHT22;70058;42.660;23.366;2023-06-26T03:53:33;20.70;69.80
80367;DHT22;70058;42.660;23.366;2023-06-26T03:55:58;20.60;68.90
80367;DHT22;70058;42.660;23.366;2023-06-26T03:58:24;20.80;69.50
80367;DHT22;70058;42.660;23.366;2023-06-26T04:00:50;20.90;68.80
80367;DHT22;70058;42.660;23.366;2023-06-26T04:03:16;21.10;67.80
80367;DHT22;70058;42.660;23.366;2023-06-26T04:05:42;21.30;66.90
80367;DHT22;70058;42.660;23.366;2023-06-26T04:08:08;21.50;67.20
80367;DHT22;70058;42.660;23.366;2023-06-26T04:10:34;21.50;66.10
80367;DHT22;70058;42.660;23.366;2023-06-26T04:13:01;21.70;66.20
80367;DHT22;70058;42.660;23.366;2023-06-26T04:15:27;22.10;64.70
80367;DHT22;70058;42.660;23.366;2023-06-26T04:17:53;22.40;63.40
80367;DHT22;70058;42.660;23.366;2023-06-26T04:22:48;23.40;62.60
80367;DHT22;70058;42.660;23.366;2023-06-26T04:25:14;23.80;60.90
80367;DHT22;70058;42.660;23.366;2023-06-26T04:27:39;24.80;58.30
80367;DHT22;70058;42.660;23.366;2023-06-26T04:30:07;25.30;55.00
80367;DHT22;70058;42.660;23.366;2023-06-26T04:32:33;25.80;54.30
80367;DHT22;70058;42.660;23.366;2023-06-26T04:34:59;26.60;52.20
80367;DHT22;70058;42.660;23.366;2023-06-26T04:37:25;27.40;51.60
80367;DHT22;70058;42.660;23.366;2023-06-26T04:39:51;28.10;48.20
80367;DHT22;70058;42.660;23.366;2023-06-26T04:42:18;28.00;50.90
80367;DHT22;70058;42.660;23.366;2023-06-26T04:44:47;27.50;50.40
80367;DHT22;70058;42.660;23.366;2023-06-26T04:47:12;27.50;51.90
80367;DHT22;70058;42.660;23.366;2023-06-26T04:49:40;27.70;49.50
80367;DHT22;70058;42.660;23.366;2023-06-26T04:52:12;27.60;51.60
80367;DHT22;70058;42.660;23.366;2023-06-26T04:54:40;28.10;50.40
80367;DHT22;70058;42.660;23.366;2023-06-26T04:57:06;28.60;50.00
80367;DHT22;70058;42.660;23.366;2023-06-26T04:59:37;29.10;47.50
80367;DHT22;70058;42.660;23.366;2023-06-26T05:02:03;29.80;45.60
80367;DHT22;70058;42.660;23.366;2023-06-26T05:04:30;30.10;44.80
80367;DHT22;70058;42.660;23.366;2023-06-26T05:06:56;29.80;45.60
80367;DHT22;70058;42.660;23.366;2023-06-26T05:09:21;29.10;47.20
80367;DHT22;70058;42.660;23.366;2023-06-26T05:11:47;28.40;48.40
80367;DHT22;70058;42.660;23.366;2023-06-26T05:14:13;27.80;49.50
80367;DHT22;70058;42.660;23.366;2023-06-26T05:16:39;27.40;50.40
80367;DHT22;70058;42.660;23.366;2023-06-26T05:19:08;27.20;51.50
80367;DHT22;70058;42.660;23.366;2023-06-26T05:21:35;27.10;50.40
80367;DHT22;70058;42.660;23.366;2023-06-26T05:24:02;27.10;51.40
80367;DHT22;70058;42.660;23.366;2023-06-26T05:26:29;27.00;51.20
80367;DHT22;70058;42.660;23.366;2023-06-26T05:28:55;27.00;51.10
80367;DHT22;70058;42.660;23.366;2023-06-26T05:31:21;27.00;50.50
80367;DHT22;70058;42.660;23.366;2023-06-26T05:33:47;27.10;51.50
80367;DHT22;70058;42.660;23.366;2023-06-26T05:36:16;27.20;51.70
80367;DHT22;70058;42.660;23.366;2023-06-26T05:38:42;27.30;50.30
80367;DHT22;70058;42.660;23.366;2023-06-26T05:41:08;27.30;51.10
80367;DHT22;70058;42.660;23.366;2023-06-26T05:43:34;27.20;52.00
80367;DHT22;70058;42.660;23.366;2023-06-26T05:46:00;27.10;51.60
80367;DHT22;70058;42.660;23.366;2023-06-26T05:48:25;26.80;51.90
80367;DHT22;70058;42.660;23.366;2023-06-26T05:50:51;26.70;52.30
80367;DHT22;70058;42.660;23.366;2023-06-26T05:53:21;26.70;51.90
80367;DHT22;70058;42.660;23.366;2023-06-26T05:55:53;27.30;52.00
80367;DHT22;70058;42.660;23.366;2023-06-26T05:58:20;27.80;48.70
80367;DHT22;70058;42.660;23.366;2023-06-26T06:00:46;29.60;46.00
80367;DHT22;70058;42.660;23.366;2023-06-26T06:05:43;34.50;39.20
80367;DHT22;70058;42.660;23.366;2023-06-26T06:08:08;35.90;36.10
80367;DHT22;70058;42.660;23.366;2023-06-26T06:10:34;35.60;34.20
80367;DHT22;70058;42.660;23.366;2023-06-26T06:13:00;35.70;34.60
80367;DHT22;70058;42.660;23.366;2023-06-26T06:15:26;35.40;34.00
80367;DHT22;70058;42.660;23.366;2023-06-26T06:17:51;34.20;34.90
80367;DHT22;70058;42.660;23.366;2023-06-26T06:20:17;34.10;35.90
80367;DHT22;70058;42.660;23.366;2023-06-26T06:22:45;34.60;35.00
80367;DHT22;70058;42.660;23.366;2023-06-26T06:25:11;35.40;34.90
80367;DHT22;70058;42.660;23.366;2023-06-26T06:27:39;36.10;32.90
80367;DHT22;70058;42.660;23.366;2023-06-26T06:30:05;36.10;33.50
80367;DHT22;70058;42.660;23.366;2023-06-26T06:32:31;35.50;33.60
80367;DHT22;70058;42.660;23.366;2023-06-26T06:34:57;35.00;34.80
80367;DHT22;70058;42.660;23.366;2023-06-26T06:37:23;34.60;34.80
80367;DHT22;70058;42.660;23.366;2023-06-26T06:39:48;35.10;36.40
80367;DHT22;70058;42.660;23.366;2023-06-26T06:42:14;35.70;32.40
80367;DHT22;70058;42.660;23.366;2023-06-26T06:44:39;37.00;33.20
80367;DHT22;70058;42.660;23.366;2023-06-26T06:47:06;38.70;29.40
80367;DHT22;70058;42.660;23.366;2023-06-26T06:49:31;40.40;27.20
80367;DHT22;70058;42.660;23.366;2023-06-26T06:51:58;42.00;28.00
80367;DHT22;70058;42.660;23.366;2023-06-26T06:54:26;43.20;27.00
80367;DHT22;70058;42.660;23.366;2023-06-26T06:56:53;43.80;26.00
80367;DHT22;70058;42.660;23.366;2023-06-26T06:59:19;44.20;25.50
80367;DHT22;70058;42.660;23.366;2023-06-26T07:01:44;44.30;25.40
80367;DHT22;70058;42.660;23.366;2023-06-26T07:04:10;43.80;25.10
80367;DHT22;70058;42.660;23.366;2023-06-26T07:06:36;42.50;25.10
80367;DHT22;70058;42.660;23.366;2023-06-26T07:09:01;43.10;25.80
80367;DHT22;70058;42.660;23.366;2023-06-26T07:11:28;44.30;23.00
80367;DHT22;70058;42.660;23.366;2023-06-26T07:13:55;43.50;22.90
80367;DHT22;70058;42.660;23.366;2023-06-26T07:16:20;43.50;25.50
80367;DHT22;70058;42.660;23.366;2023-06-26T07:18:46;44.40;24.30
80367;DHT22;70058;42.660;23.366;2023-06-26T07:21:12;45.50;23.70
80367;DHT22;70058;42.660;23.366;2023-06-26T07:23:38;46.40;23.50
80367;DHT22;70058;42.660;23.366;2023-06-26T07:26:04;47.00;23.40
80367;DHT22;70058;42.660;23.366;2023-06-26T07:28:30;46.70;21.60
80367;DHT22;70058;42.660;23.366;2023-06-26T07:30:56;45.90;23.20
80367;DHT22;70058;42.660;23.366;2023-06-26T07:33:22;45.30;21.30
80367;DHT22;70058;42.660;23.366;2023-06-26T07:35:47;44.00;23.90
80367;DHT22;70058;42.660;23.366;2023-06-26T07:38:13;43.60;23.30
80367;DHT22;70058;42.660;23.366;2023-06-26T07:40:39;43.60;23.80
80367;DHT22;70058;42.660;23.366;2023-06-26T07:43:04;44.50;23.30
80367;DHT22;70058;42.660;23.366;2023-06-26T07:45:30;43.90;23.00
80367;DHT22;70058;42.660;23.366;2023-06-26T07:47:56;44.40;22.90
80367;DHT22;70058;42.660;23.366;2023-06-26T07:50:21;46.00;23.30
80367;DHT22;70058;42.660;23.366;2023-06-26T07:52:48;46.50;20.30
80367;DHT22;70058;42.660;23.366;2023-06-26T07:55:14;47.50;21.40
80367;DHT22;70058;42.660;23.366;2023-06-26T07:57:40;46.70;19.60
80367;DHT22;70058;42.660;23.366;2023-06-26T08:00:06;45.40;22.40
80367;DHT22;70058;42.660;23.366;2023-06-26T08:02:32;43.80;22.00
80367;DHT22;70058;42.660;23.366;2023-06-26T08:04:58;43.20;24.40
80367;DHT22;70058;42.660;23.366;2023-06-26T08:07:23;43.80;23.80
80367;DHT22;70058;42.660;23.366;2023-06-26T08:09:49;44.70;22.30
80367;DHT22;70058;42.660;23.366;2023-06-26T08:12:14;43.40;23.30
80367;DHT22;70058;42.660;23.366;2023-06-26T08:14:40;41.30;24.60
80367;DHT22;70058;42.660;23.366;2023-06-26T08:17:06;40.30;26.20
80367;DHT22;70058;42.660;23.366;2023-06-26T08:19:31;41.90;25.40
80367;DHT22;70058;42.660;23.366;2023-06-26T08:21:57;44.40;22.50
80367;DHT22;70058;42.660;23.366;2023-06-26T08:24:23;44.70;23.00
80367;DHT22;70058;42.660;23.366;2023-06-26T08:26:48;42.90;22.80
80367;DHT22;70058;42.660;23.366;2023-06-26T08:32:11;41.20;23.30
80367;DHT22;70058;42.660;23.366;2023-06-26T08:34:36;43.60;22.90
80367;DHT22;70058;42.660;23.366;2023-06-26T08:37:03;45.80;20.50
80367;DHT22;70058;42.660;23.366;2023-06-26T08:39:29;47.80;19.20
80367;DHT22;70058;42.660;23.366;2023-06-26T08:41:59;49.60;18.00
80367;DHT22;70058;42.660;23.366;2023-06-26T08:44:24;50.50;17.50
80367;DHT22;70058;42.660;23.366;2023-06-26T08:46:51;49.20;18.20
80367;DHT22;70058;42.660;23.366;2023-06-26T08:49:47;46.80;19.00
80367;DHT22;70058;42.660;23.366;2023-06-26T08:52:31;45.00;20.20
80367;DHT22;70058;42.660;23.366;2023-06-26T08:54:59;44.30;20.40
80367;DHT22;70058;42.660;23.366;2023-06-26T08:57:28;43.00;21.40
80367;DHT22;70058;42.660;23.366;2023-06-26T08:59:55;42.70;21.90
80367;DHT22;70058;42.660;23.366;2023-06-26T09:02:21;44.40;20.80
80367;DHT22;70058;42.660;23.366;2023-06-26T09:07:17;48.90;17.40
80367;DHT22;70058;42.660;23.366;2023-06-26T09:09:43;49.60;17.50
80367;DHT22;70058;42.660;23.366;2023-06-26T09:12:10;48.30;18.00
80367;DHT22;70058;42.660;23.366;2023-06-26T09:14:37;45.90;19.50
80367;DHT22;70058;42.660;23.366;2023-06-26T09:17:03;45.10;20.10
80367;DHT22;70058;42.660;23.366;2023-06-26T09:19:29;46.20;19.30
80367;DHT22;70058;42.660;23.366;2023-06-26T09:21:55;46.00;19.50
80367;DHT22;70058;42.660;23.366;2023-06-26T09:24:22;46.40;18.80
80367;DHT22;70058;42.660;23.366;2023-06-26T09:26:49;46.90;18.80
80367;DHT22;70058;42.660;23.366;2023-06-26T09:29:15;45.90;19.30
80367;DHT22;70058;42.660;23.366;2023-06-26T09:31:44;46.70;18.80
80367;DHT22;70058;42.660;23.366;2023-06-26T09:34:10;47.60;17.70
80367;DHT22;70058;42.660;23.366;2023-06-26T09:36:36;46.30;18.60
80367;DHT22;70058;42.660;23.366;2023-06-26T09:39:05;45.10;19.30
80367;DHT22;70058;42.660;23.366;2023-06-26T09:41:34;43.80;20.20
80367;DHT22;70058;42.660;23.366;2023-06-26T09:44:02;42.40;21.30
80367;DHT22;70058;42.660;23.366;2023-06-26T09:46:29;41.20;22.10
80367;DHT22;70058;42.660;23.366;2023-06-26T09:51:31;40.00;23.20
80367;DHT22;70058;42.660;23.366;2023-06-26T09:53:58;41.50;22.30
80367;DHT22;70058;42.660;23.366;2023-06-26T09:56:24;45.00;19.80
80367;DHT22;70058;42.660;23.366;2023-06-26T09:58:55;44.90;19.40
80367;DHT22;70058;42.660;23.366;2023-06-26T10:01:23;43.40;20.30
80367;DHT22;70058;42.660;23.366;2023-06-26T10:03:49;41.70;21.90
80367;DHT22;70058;42.660;23.366;2023-06-26T10:06:22;41.30;21.60
80367;DHT22;70058;42.660;23.366;2023-06-26T10:08:50;39.30;23.10
80367;DHT22;70058;42.660;23.366;2023-06-26T10:11:20;38.20;24.20
80367;DHT22;70058;42.660;23.366;2023-06-26T10:13:49;37.50;25.20
80367;DHT22;70058;42.660;23.366;2023-06-26T10:19:16;36.10;26.10
80367;DHT22;70058;42.660;23.366;2023-06-26T10:21:42;35.30;26.60
80367;DHT22;70058;42.660;23.366;2023-06-26T10:24:10;35.10;27.20
80367;DHT22;70058;42.660;23.366;2023-06-26T10:26:40;35.40;26.50
80367;DHT22;70058;42.660;23.366;2023-06-26T10:29:10;34.90;26.90
80367;DHT22;70058;42.660;23.366;2023-06-26T10:31:38;33.90;27.40
80367;DHT22;70058;42.660;23.366;2023-06-26T10:34:05;32.80;28.30
80367;DHT22;70058;42.660;23.366;2023-06-26T10:36:31;31.70;29.70
80367;DHT22;70058;42.660;23.366;2023-06-26T10:39:04;30.80;31.40
80367;DHT22;70058;42.660;23.366;2023-06-26T10:41:40;30.50;32.30
80367;DHT22;70058;42.660;23.366;2023-06-26T10:44:15;30.20;31.60
80367;DHT22;70058;42.660;23.366;2023-06-26T10:49:14;30.00;31.60
80367;DHT22;70058;42.660;23.366;2023-06-26T10:51:49;30.10;32.40
80367;DHT22;70058;42.660;23.366;2023-06-26T10:54:19;30.30;32.30
80367;DHT22;70058;42.660;23.366;2023-06-26T10:56:54;30.40;32.30
80367;DHT22;70058;42.660;23.366;2023-06-26T10:59:28;30.40;31.60
80367;DHT22;70058;42.660;23.366;2023-06-26T11:01:58;30.20;32.80
80367;DHT22;70058;42.660;23.366;2023-06-26T11:04:44;30.30;31.70
80367;DHT22;70058;42.660;23.366;2023-06-26T11:07:22;30.40;31.80
80367;DHT22;70058;42.660;23.366;2023-06-26T11:10:13;30.40;32.20
80367;DHT22;70058;42.660;23.366;2023-06-26T11:12:42;30.50;32.90
80367;DHT22;70058;42.660;23.366;2023-06-26T11:15:09;30.70;33.10
80367;DHT22;70058;42.660;23.366;2023-06-26T11:17:36;30.50;32.50
80367;DHT22;70058;42.660;23.366;2023-06-26T11:20:05;30.80;32.30
80367;DHT22;70058;42.660;23.366;2023-06-26T11:22:35;30.50;32.80
80367;DHT22;70058;42.660;23.366;2023-06-26T11:25:04;30.60;33.00
80367;DHT22;70058;42.660;23.366;2023-06-26T11:30:11;30.50;32.30
80367;DHT22;70058;42.660;23.366;2023-06-26T11:32:38;30.40;32.80
80367;DHT22;70058;42.660;23.366;2023-06-26T11:35:04;30.50;31.90
80367;DHT22;70058;42.660;23.366;2023-06-26T11:39:58;30.40;32.60
80367;DHT22;70058;42.660;23.366;2023-06-26T11:42:24;30.30;32.70
80367;DHT22;70058;42.660;23.366;2023-06-26T11:44:51;30.30;32.70
80367;DHT22;70058;42.660;23.366;2023-06-26T11:47:20;30.30;32.70
80367;DHT22;70058;42.660;23.366;2023-06-26T11:49:48;30.40;33.30
80367;DHT22;70058;42.660;23.366;2023-06-26T11:54:44;30.60;31.90
80367;DHT22;70058;42.660;23.366;2023-06-26T11:57:15;30.30;33.00
80367;DHT22;70058;42.660;23.366;2023-06-26T11:59:41;30.30;33.20
80367;DHT22;70058;42.660;23.366;2023-06-26T12:02:08;30.10;32.70
80367;DHT22;70058;42.660;23.366;2023-06-26T12:04:37;29.80;33.10
80367;DHT22;70058;42.660;23.366;2023-06-26T12:07:06;29.70;33.80
80367;DHT22;70058;42.660;23.366;2023-06-26T12:09:41;29.50;34.20
80367;DHT22;70058;42.660;23.366;2023-06-26T12:12:11;29.40;34.10
80367;DHT22;70058;42.660;23.366;2023-06-26T12:14:41;29.10;34.20
80367;DHT22;70058;42.660;23.366;2023-06-26T12:17:13;29.10;34.40
80367;DHT22;70058;42.660;23.366;2023-06-26T12:19:46;29.20;34.50
80367;DHT22;70058;42.660;23.366;2023-06-26T12:22:13;29.20;34.20
80367;DHT22;70058;42.660;23.366;2023-06-26T12:24:48;29.10;35.50
80367;DHT22;70058;42.660;23.366;2023-06-26T12:27:16;29.00;34.60
80367;DHT22;70058;42.660;23.366;2023-06-26T12:29:56;29.00;34.70
80367;DHT22;70058;42.660;23.366;2023-06-26T12:32:25;29.10;35.10
80367;DHT22;70058;42.660;23.366;2023-06-26T12:34:51;29.10;35.00
80367;DHT22;70058;42.660;23.366;2023-06-26T12:37:18;29.10;34.90
80367;DHT22;70058;42.660;23.366;2023-06-26T12:40:18;29.20;34.40
80367;DHT22;70058;42.660;23.366;2023-06-26T12:42:45;29.40;34.40
80367;DHT22;70058;42.660;23.366;2023-06-26T12:45:20;29.50;34.40
80367;DHT22;70058;42.660;23.366;2023-06-26T12:48:07;29.60;34.90
80367;DHT22;70058;42.660;23.366;2023-06-26T12:50:47;29.70;34.80
80367;DHT22;70058;42.660;23.366;2023-06-26T12:53:15;29.80;34.20
80367;DHT22;70058;42.660;23.366;2023-06-26T12:55:41;29.90;34.30
80367;DHT22;70058;42.660;23.366;2023-06-26T12:58:07;29.70;34.60
80367;DHT22;70058;42.660;23.366;2023-06-26T13:00:32;29.60;35.20
80367;DHT22;70058;42.660;23.366;2023-06-26T13:02:59;29.50;36.00
80367;DHT22;70058;42.660;23.366;2023-06-26T13:05:24;29.40;35.80
80367;DHT22;70058;42.660;23.366;2023-06-26T13:07:50;29.40;35.50
80367;DHT22;70058;42.660;23.366;2023-06-26T13:10:16;29.50;35.40
80367;DHT22;70058;42.660;23.366;2023-06-26T13:12:42;29.60;36.00
80367;DHT22;70058;42.660;23.366;2023-06-26T13:15:08;29.70;35.30
80367;DHT22;70058;42.660;23.366;2023-06-26T13:17:35;29.70;35.70
80367;DHT22;70058;42.660;23.366;2023-06-26T13:20:01;29.70;35.90
80367;DHT22;70058;42.660;23.366;2023-06-26T13:22:27;29.70;34.90
80367;DHT22;70058;42.660;23.366;2023-06-26T13:27:22;29.50;35.20
80367;DHT22;70058;42.660;23.366;2023-06-26T13:29:47;29.30;35.30
80367;DHT22;70058;42.660;23.366;2023-06-26T13:32:14;29.20;35.60
80367;DHT22;70058;42.660;23.366;2023-06-26T13:34:40;28.90;35.80
80367;DHT22;70058;42.660;23.366;2023-06-26T13:37:07;28.90;37.00
80367;DHT22;70058;42.660;23.366;2023-06-26T13:39:33;28.90;37.60
80367;DHT22;70058;42.660;23.366;2023-06-26T13:41:59;29.10;36.80
80367;DHT22;70058;42.660;23.366;2023-06-26T13:44:25;29.10;37.40
80367;DHT22;70058;42.660;23.366;2023-06-26T13:49:19;29.10;36.40
80367;DHT22;70058;42.660;23.366;2023-06-26T13:51:44;29.00;37.20
80367;DHT22;70058;42.660;23.366;2023-06-26T13:54:12;28.80;37.50
80367;DHT22;70058;42.660;23.366;2023-06-26T13:56:41;28.90;37.40
80367;DHT22;70058;42.660;23.366;2023-06-26T13:59:06;28.90;37.70
80367;DHT22;70058;42.660;23.366;2023-06-26T14:01:32;28.90;37.40
80367;DHT22;70058;42.660;23.366;2023-06-26T14:03:58;28.90;37.80
80367;DHT22;70058;42.660;23.366;2023-06-26T14:06:24;29.30;37.60
80367;DHT22;70058;42.660;23.366;2023-06-26T14:08:49;29.70;37.10
80367;DHT22;70058;42.660;23.366;2023-06-26T14:11:15;30.10;35.70
80367;DHT22;70058;42.660;23.366;2023-06-26T14:13:41;30.50;34.40
80367;DHT22;70058;42.660;23.366;2023-06-26T14:16:07;30.70;34.10
80367;DHT22;70058;42.660;23.366;2023-06-26T14:18:32;30.80;34.60
80367;DHT22;70058;42.660;23.366;2023-06-26T14:20:58;30.90;34.60
80367;DHT22;70058;42.660;23.366;2023-06-26T14:23:24;30.70;33.40
80367;DHT22;70058;42.660;23.366;2023-06-26T14:25:50;30.80;35.10
80367;DHT22;70058;42.660;23.366;2023-06-26T14:28:17;30.80;34.30
80367;DHT22;70058;42.660;23.366;2023-06-26T14:30:43;30.70;34.10
80367;DHT22;70058;42.660;23.366;2023-06-26T14:33:09;30.70;33.30
80367;DHT22;70058;42.660;23.366;2023-06-26T14:35:35;30.60;35.50
80367;DHT22;70058;42.660;23.366;2023-06-26T14:38:01;30.20;36.50
80367;DHT22;70058;42.660;23.366;2023-06-26T14:40:27;29.60;39.50
80367;DHT22;70058;42.660;23.366;2023-06-26T14:42:52;29.00;42.30
80367;DHT22;70058;42.660;23.366;2023-06-26T14:45:18;28.40;48.00
80367;DHT22;70058;42.660;23.366;2023-06-26T14:47:44;27.90;50.20
80367;DHT22;70058;42.660;23.366;2023-06-26T14:50:09;27.70;49.70
80367;DHT22;70058;42.660;23.366;2023-06-26T14:52:35;27.50;47.50
80367;DHT22;70058;42.660;23.366;2023-06-26T14:55:01;27.30;48.50
80367;DHT22;70058;42.660;23.366;2023-06-26T14:57:32;27.10;47.60
80367;DHT22;70058;42.660;23.366;2023-06-26T14:59:58;26.90;49.00
80367;DHT22;70058;42.660;23.366;2023-06-26T15:02:23;26.60;52.10
80367;DHT22;70058;42.660;23.366;2023-06-26T15:04:49;26.30;55.20
80367;DHT22;70058;42.660;23.366;2023-06-26T15:07:15;26.10;56.70
80367;DHT22;70058;42.660;23.366;2023-06-26T15:09:40;25.90;57.60
80367;DHT22;70058;42.660;23.366;2023-06-26T15:12:06;25.70;56.60
80367;DHT22;70058;42.660;23.366;2023-06-26T15:14:35;25.60;57.50
80367;DHT22;70058;42.660;23.366;2023-06-26T15:17:05;25.50;58.50
80367;DHT22;70058;42.660;23.366;2023-06-26T15:19:30;25.40;57.60
80367;DHT22;70058;42.660;23.366;2023-06-26T15:21:56;25.20;62.30
80367;DHT22;70058;42.660;23.366;2023-06-26T15:24:22;25.20;62.00
80367;DHT22;70058;42.660;23.366;2023-06-26T15:26:47;25.20;60.80
80367;DHT22;70058;42.660;23.366;2023-06-26T15:29:13;25.10;60.30
80367;DHT22;70058;42.660;23.366;2023-06-26T15:31:41;25.10;60.50
80367;DHT22;70058;42.660;23.366;2023-06-26T15:34:06;25.20;59.70
80367;DHT22;70058;42.660;23.366;2023-06-26T15:36:32;25.30;58.80
80367;DHT22;70058;42.660;23.366;2023-06-26T15:38:58;25.50;57.80
80367;DHT22;70058;42.660;23.366;2023-06-26T15:41:24;25.70;57.00
80367;DHT22;70058;42.660;23.366;2023-06-26T15:43:54;25.90;57.20
80367;DHT22;70058;42.660;23.366;2023-06-26T15:46:20;26.10;57.80
80367;DHT22;70058;42.660;23.366;2023-06-26T15:48:46;26.10;57.70
80367;DHT22;70058;42.660;23.366;2023-06-26T15:51:13;26.10;58.00
80367;DHT22;70058;42.660;23.366;2023-06-26T15:53:40;26.10;58.90